<?xml version="1.0" encoding="UTF-8" standalone="no" ?>
<gpx xmlns="http://www.topografix.com/GPX/1/1" xmlns:xsi="http://www.w3.org/2001/XMLSchema-instance" xsi:schemaLocation="http://www.topografix.com/GPX/1/1 http://www.topografix.com/GPX/1/1/gpx.xsd" version="1.1" creator="VisuGPX - https://www.visugpx.com">
  <metadata>
    <name>OMS CHENOVE Marche du vendredi 18 janvier 2013</name>
    <desc><![CDATA[De Couchey à Marsannay]]></desc>
  </metadata>
  <trk>
    <name><![CDATA[OMS CHENOVE Marche du vendredi 18 janvier 2013_1]]></name>
    <trkseg>
      <trkpt lat="47.25973" lon="4.97595">
        <ele>287.506</ele>
        <time>2013-01-18T09:18:55Z</time>
      </trkpt>
      <trkpt lat="47.2595" lon="4.97602">
        <ele>303.202</ele>
        <time>2013-01-18T09:19:06Z</time>
      </trkpt>
      <trkpt lat="47.25935" lon="4.97602">
        <ele>305.5</ele>
        <time>2013-01-18T09:19:17Z</time>
      </trkpt>
      <trkpt lat="47.25927" lon="4.9758">
        <ele>303.012</ele>
        <time>2013-01-18T09:19:28Z</time>
      </trkpt>
      <trkpt lat="47.25925" lon="4.9756">
        <ele>307.515</ele>
        <time>2013-01-18T09:19:39Z</time>
      </trkpt>
      <trkpt lat="47.25927" lon="4.97537">
        <ele>309.939</ele>
        <time>2013-01-18T09:19:50Z</time>
      </trkpt>
      <trkpt lat="47.25932" lon="4.97515">
        <ele>307.877</ele>
        <time>2013-01-18T09:20:01Z</time>
      </trkpt>
      <trkpt lat="47.25933" lon="4.97495">
        <ele>305.13</ele>
        <time>2013-01-18T09:20:12Z</time>
      </trkpt>
      <trkpt lat="47.25933" lon="4.97472">
        <ele>304.815</ele>
        <time>2013-01-18T09:20:23Z</time>
      </trkpt>
      <trkpt lat="47.2593" lon="4.97448">
        <ele>307.438</ele>
        <time>2013-01-18T09:20:34Z</time>
      </trkpt>
      <trkpt lat="47.2593" lon="4.97427">
        <ele>307.843</ele>
        <time>2013-01-18T09:20:45Z</time>
      </trkpt>
      <trkpt lat="47.25928" lon="4.97402">
        <ele>310.614</ele>
        <time>2013-01-18T09:20:56Z</time>
      </trkpt>
      <trkpt lat="47.25928" lon="4.97385">
        <ele>311.432</ele>
        <time>2013-01-18T09:21:07Z</time>
      </trkpt>
      <trkpt lat="47.25928" lon="4.97363">
        <ele>314.902</ele>
        <time>2013-01-18T09:21:18Z</time>
      </trkpt>
      <trkpt lat="47.25922" lon="4.97343">
        <ele>318.168</ele>
        <time>2013-01-18T09:21:29Z</time>
      </trkpt>
      <trkpt lat="47.25908" lon="4.97335">
        <ele>321.722</ele>
        <time>2013-01-18T09:21:40Z</time>
      </trkpt>
      <trkpt lat="47.25893" lon="4.97328">
        <ele>327.303</ele>
        <time>2013-01-18T09:21:51Z</time>
      </trkpt>
      <trkpt lat="47.25878" lon="4.97322">
        <ele>329.498</ele>
        <time>2013-01-18T09:22:02Z</time>
      </trkpt>
      <trkpt lat="47.25865" lon="4.97317">
        <ele>329.283</ele>
        <time>2013-01-18T09:22:13Z</time>
      </trkpt>
      <trkpt lat="47.2585" lon="4.9731">
        <ele>328.926</ele>
        <time>2013-01-18T09:22:24Z</time>
      </trkpt>
      <trkpt lat="47.25833" lon="4.97305">
        <ele>329.31</ele>
        <time>2013-01-18T09:22:35Z</time>
      </trkpt>
      <trkpt lat="47.25818" lon="4.97298">
        <ele>329.411</ele>
        <time>2013-01-18T09:22:46Z</time>
      </trkpt>
      <trkpt lat="47.25803" lon="4.97293">
        <ele>330.142</ele>
        <time>2013-01-18T09:22:57Z</time>
      </trkpt>
      <trkpt lat="47.25787" lon="4.97287">
        <ele>330.356</ele>
        <time>2013-01-18T09:23:08Z</time>
      </trkpt>
      <trkpt lat="47.25772" lon="4.97278">
        <ele>330.983</ele>
        <time>2013-01-18T09:23:19Z</time>
      </trkpt>
      <trkpt lat="47.25753" lon="4.97273">
        <ele>332.644</ele>
        <time>2013-01-18T09:23:30Z</time>
      </trkpt>
      <trkpt lat="47.25735" lon="4.97268">
        <ele>332.832</ele>
        <time>2013-01-18T09:23:41Z</time>
      </trkpt>
      <trkpt lat="47.25718" lon="4.97262">
        <ele>332.611</ele>
        <time>2013-01-18T09:23:52Z</time>
      </trkpt>
      <trkpt lat="47.25702" lon="4.97252">
        <ele>333.267</ele>
        <time>2013-01-18T09:24:03Z</time>
      </trkpt>
      <trkpt lat="47.25685" lon="4.97243">
        <ele>335.312</ele>
        <time>2013-01-18T09:24:14Z</time>
      </trkpt>
      <trkpt lat="47.2567" lon="4.97232">
        <ele>335.927</ele>
        <time>2013-01-18T09:24:25Z</time>
      </trkpt>
      <trkpt lat="47.25653" lon="4.9722">
        <ele>337.381</ele>
        <time>2013-01-18T09:24:36Z</time>
      </trkpt>
      <trkpt lat="47.25642" lon="4.97205">
        <ele>337.944</ele>
        <time>2013-01-18T09:24:47Z</time>
      </trkpt>
      <trkpt lat="47.2563" lon="4.97188">
        <ele>338.281</ele>
        <time>2013-01-18T09:24:58Z</time>
      </trkpt>
      <trkpt lat="47.25618" lon="4.97172">
        <ele>338.136</ele>
        <time>2013-01-18T09:25:09Z</time>
      </trkpt>
      <trkpt lat="47.25607" lon="4.97157">
        <ele>337.408</ele>
        <time>2013-01-18T09:25:20Z</time>
      </trkpt>
      <trkpt lat="47.2559" lon="4.97147">
        <ele>337.434</ele>
        <time>2013-01-18T09:25:31Z</time>
      </trkpt>
      <trkpt lat="47.25575" lon="4.9714">
        <ele>337.276</ele>
        <time>2013-01-18T09:25:42Z</time>
      </trkpt>
      <trkpt lat="47.25557" lon="4.97133">
        <ele>338.09</ele>
        <time>2013-01-18T09:25:53Z</time>
      </trkpt>
      <trkpt lat="47.2554" lon="4.97123">
        <ele>337.866</ele>
        <time>2013-01-18T09:26:04Z</time>
      </trkpt>
      <trkpt lat="47.25525" lon="4.9711">
        <ele>338.626</ele>
        <time>2013-01-18T09:26:15Z</time>
      </trkpt>
      <trkpt lat="47.25512" lon="4.97093">
        <ele>339.17</ele>
        <time>2013-01-18T09:26:26Z</time>
      </trkpt>
      <trkpt lat="47.25503" lon="4.97073">
        <ele>339.358</ele>
        <time>2013-01-18T09:26:37Z</time>
      </trkpt>
      <trkpt lat="47.25502" lon="4.9705">
        <ele>339.297</ele>
        <time>2013-01-18T09:26:48Z</time>
      </trkpt>
      <trkpt lat="47.25497" lon="4.97028">
        <ele>338.6</ele>
        <time>2013-01-18T09:26:59Z</time>
      </trkpt>
      <trkpt lat="47.2549" lon="4.97005">
        <ele>341.029</ele>
        <time>2013-01-18T09:27:10Z</time>
      </trkpt>
      <trkpt lat="47.25483" lon="4.96983">
        <ele>342.179</ele>
        <time>2013-01-18T09:27:21Z</time>
      </trkpt>
      <trkpt lat="47.25478" lon="4.9697">
        <ele>342.315</ele>
        <time>2013-01-18T09:27:32Z</time>
      </trkpt>
      <trkpt lat="47.25478" lon="4.9697">
        <ele>342.232</ele>
        <time>2013-01-18T09:27:43Z</time>
      </trkpt>
      <trkpt lat="47.25478" lon="4.9697">
        <ele>342.092</ele>
        <time>2013-01-18T09:27:54Z</time>
      </trkpt>
      <trkpt lat="47.25478" lon="4.9697">
        <ele>342.153</ele>
        <time>2013-01-18T09:28:05Z</time>
      </trkpt>
      <trkpt lat="47.25478" lon="4.9697">
        <ele>342.153</ele>
        <time>2013-01-18T09:28:16Z</time>
      </trkpt>
      <trkpt lat="47.25478" lon="4.9697">
        <ele>342.049</ele>
        <time>2013-01-18T09:28:27Z</time>
      </trkpt>
      <trkpt lat="47.25478" lon="4.9697">
        <ele>341.8</ele>
        <time>2013-01-18T09:28:38Z</time>
      </trkpt>
      <trkpt lat="47.25478" lon="4.9697">
        <ele>342.049</ele>
        <time>2013-01-18T09:28:49Z</time>
      </trkpt>
      <trkpt lat="47.25478" lon="4.9697">
        <ele>341.8</ele>
        <time>2013-01-18T09:29:00Z</time>
      </trkpt>
      <trkpt lat="47.25472" lon="4.96957">
        <ele>342.061</ele>
        <time>2013-01-18T09:29:11Z</time>
      </trkpt>
      <trkpt lat="47.2546" lon="4.96942">
        <ele>341.731</ele>
        <time>2013-01-18T09:29:22Z</time>
      </trkpt>
      <trkpt lat="47.25448" lon="4.96925">
        <ele>343.008</ele>
        <time>2013-01-18T09:29:33Z</time>
      </trkpt>
      <trkpt lat="47.25438" lon="4.96908">
        <ele>341.3</ele>
        <time>2013-01-18T09:29:44Z</time>
      </trkpt>
      <trkpt lat="47.25423" lon="4.96887">
        <ele>343.167</ele>
        <time>2013-01-18T09:29:55Z</time>
      </trkpt>
      <trkpt lat="47.25413" lon="4.96868">
        <ele>343.818</ele>
        <time>2013-01-18T09:30:06Z</time>
      </trkpt>
      <trkpt lat="47.25407" lon="4.96848">
        <ele>343.759</ele>
        <time>2013-01-18T09:30:17Z</time>
      </trkpt>
      <trkpt lat="47.25398" lon="4.96827">
        <ele>343.056</ele>
        <time>2013-01-18T09:30:28Z</time>
      </trkpt>
      <trkpt lat="47.25392" lon="4.96807">
        <ele>341.4</ele>
        <time>2013-01-18T09:30:39Z</time>
      </trkpt>
      <trkpt lat="47.25385" lon="4.96783">
        <ele>344.728</ele>
        <time>2013-01-18T09:30:50Z</time>
      </trkpt>
      <trkpt lat="47.25378" lon="4.9676">
        <ele>346.124</ele>
        <time>2013-01-18T09:31:01Z</time>
      </trkpt>
      <trkpt lat="47.25373" lon="4.96738">
        <ele>345.982</ele>
        <time>2013-01-18T09:31:12Z</time>
      </trkpt>
      <trkpt lat="47.2537" lon="4.96715">
        <ele>341.5</ele>
        <time>2013-01-18T09:31:23Z</time>
      </trkpt>
      <trkpt lat="47.25367" lon="4.96702">
        <ele>344.224</ele>
        <time>2013-01-18T09:31:34Z</time>
      </trkpt>
      <trkpt lat="47.25367" lon="4.96693">
        <ele>341.5</ele>
        <time>2013-01-18T09:31:45Z</time>
      </trkpt>
      <trkpt lat="47.25367" lon="4.96673">
        <ele>342.8</ele>
        <time>2013-01-18T09:31:56Z</time>
      </trkpt>
      <trkpt lat="47.25365" lon="4.96657">
        <ele>342.9</ele>
        <time>2013-01-18T09:32:07Z</time>
      </trkpt>
      <trkpt lat="47.25362" lon="4.96632">
        <ele>345.281</ele>
        <time>2013-01-18T09:32:18Z</time>
      </trkpt>
      <trkpt lat="47.2536" lon="4.96607">
        <ele>342.8</ele>
        <time>2013-01-18T09:32:29Z</time>
      </trkpt>
      <trkpt lat="47.25355" lon="4.96583">
        <ele>342.2</ele>
        <time>2013-01-18T09:32:40Z</time>
      </trkpt>
      <trkpt lat="47.25352" lon="4.9656">
        <ele>340.4</ele>
        <time>2013-01-18T09:32:51Z</time>
      </trkpt>
      <trkpt lat="47.25352" lon="4.9654">
        <ele>340.1</ele>
        <time>2013-01-18T09:33:02Z</time>
      </trkpt>
      <trkpt lat="47.25343" lon="4.9652">
        <ele>336.9</ele>
        <time>2013-01-18T09:33:13Z</time>
      </trkpt>
      <trkpt lat="47.25335" lon="4.96507">
        <ele>333.7</ele>
        <time>2013-01-18T09:33:24Z</time>
      </trkpt>
      <trkpt lat="47.25342" lon="4.96482">
        <ele>334.5</ele>
        <time>2013-01-18T09:33:35Z</time>
      </trkpt>
      <trkpt lat="47.25348" lon="4.9646">
        <ele>335.7</ele>
        <time>2013-01-18T09:33:46Z</time>
      </trkpt>
      <trkpt lat="47.25352" lon="4.96442">
        <ele>349.555</ele>
        <time>2013-01-18T09:33:57Z</time>
      </trkpt>
      <trkpt lat="47.25355" lon="4.96427">
        <ele>336</ele>
        <time>2013-01-18T09:34:08Z</time>
      </trkpt>
      <trkpt lat="47.25365" lon="4.96405">
        <ele>337.2</ele>
        <time>2013-01-18T09:34:19Z</time>
      </trkpt>
      <trkpt lat="47.25373" lon="4.96387">
        <ele>339</ele>
        <time>2013-01-18T09:34:30Z</time>
      </trkpt>
      <trkpt lat="47.25385" lon="4.96365">
        <ele>339.9</ele>
        <time>2013-01-18T09:34:41Z</time>
      </trkpt>
      <trkpt lat="47.25392" lon="4.9634">
        <ele>340.3</ele>
        <time>2013-01-18T09:34:52Z</time>
      </trkpt>
      <trkpt lat="47.25398" lon="4.96318">
        <ele>341.5</ele>
        <time>2013-01-18T09:35:03Z</time>
      </trkpt>
      <trkpt lat="47.25403" lon="4.96298">
        <ele>341.5</ele>
        <time>2013-01-18T09:35:14Z</time>
      </trkpt>
      <trkpt lat="47.25413" lon="4.96282">
        <ele>342</ele>
        <time>2013-01-18T09:35:25Z</time>
      </trkpt>
      <trkpt lat="47.25423" lon="4.9626">
        <ele>344.5</ele>
        <time>2013-01-18T09:35:36Z</time>
      </trkpt>
      <trkpt lat="47.25428" lon="4.96235">
        <ele>345.4</ele>
        <time>2013-01-18T09:35:47Z</time>
      </trkpt>
      <trkpt lat="47.25438" lon="4.96215">
        <ele>346.6</ele>
        <time>2013-01-18T09:35:58Z</time>
      </trkpt>
      <trkpt lat="47.25443" lon="4.962">
        <ele>346.3</ele>
        <time>2013-01-18T09:36:09Z</time>
      </trkpt>
      <trkpt lat="47.2545" lon="4.96182">
        <ele>347.6</ele>
        <time>2013-01-18T09:36:20Z</time>
      </trkpt>
      <trkpt lat="47.25457" lon="4.96147">
        <ele>349.3</ele>
        <time>2013-01-18T09:36:31Z</time>
      </trkpt>
      <trkpt lat="47.2546" lon="4.96133">
        <ele>349.9</ele>
        <time>2013-01-18T09:36:42Z</time>
      </trkpt>
      <trkpt lat="47.25467" lon="4.96117">
        <ele>350.4</ele>
        <time>2013-01-18T09:36:53Z</time>
      </trkpt>
      <trkpt lat="47.2547" lon="4.961">
        <ele>351.8</ele>
        <time>2013-01-18T09:37:04Z</time>
      </trkpt>
      <trkpt lat="47.2547" lon="4.9608">
        <ele>354.7</ele>
        <time>2013-01-18T09:37:15Z</time>
      </trkpt>
      <trkpt lat="47.25475" lon="4.96053">
        <ele>357.1</ele>
        <time>2013-01-18T09:37:26Z</time>
      </trkpt>
      <trkpt lat="47.2548" lon="4.96035">
        <ele>358.5</ele>
        <time>2013-01-18T09:37:37Z</time>
      </trkpt>
      <trkpt lat="47.25485" lon="4.96017">
        <ele>359.6</ele>
        <time>2013-01-18T09:37:48Z</time>
      </trkpt>
      <trkpt lat="47.25492" lon="4.95997">
        <ele>360.5</ele>
        <time>2013-01-18T09:37:59Z</time>
      </trkpt>
      <trkpt lat="47.25497" lon="4.95975">
        <ele>361.4</ele>
        <time>2013-01-18T09:38:10Z</time>
      </trkpt>
      <trkpt lat="47.25503" lon="4.95957">
        <ele>362.3</ele>
        <time>2013-01-18T09:38:21Z</time>
      </trkpt>
      <trkpt lat="47.25507" lon="4.95933">
        <ele>363.9</ele>
        <time>2013-01-18T09:38:32Z</time>
      </trkpt>
      <trkpt lat="47.25508" lon="4.95913">
        <ele>364.8</ele>
        <time>2013-01-18T09:38:43Z</time>
      </trkpt>
      <trkpt lat="47.25512" lon="4.95892">
        <ele>365.9</ele>
        <time>2013-01-18T09:38:54Z</time>
      </trkpt>
      <trkpt lat="47.25513" lon="4.9587">
        <ele>367.1</ele>
        <time>2013-01-18T09:39:05Z</time>
      </trkpt>
      <trkpt lat="47.25518" lon="4.95852">
        <ele>367.5</ele>
        <time>2013-01-18T09:39:16Z</time>
      </trkpt>
      <trkpt lat="47.2552" lon="4.95828">
        <ele>368.6</ele>
        <time>2013-01-18T09:39:27Z</time>
      </trkpt>
      <trkpt lat="47.25528" lon="4.95808">
        <ele>369</ele>
        <time>2013-01-18T09:39:38Z</time>
      </trkpt>
      <trkpt lat="47.25537" lon="4.95783">
        <ele>372.4</ele>
        <time>2013-01-18T09:39:49Z</time>
      </trkpt>
      <trkpt lat="47.25542" lon="4.95753">
        <ele>374.8</ele>
        <time>2013-01-18T09:40:00Z</time>
      </trkpt>
      <trkpt lat="47.25545" lon="4.95748">
        <ele>374.8</ele>
        <time>2013-01-18T09:40:11Z</time>
      </trkpt>
      <trkpt lat="47.25555" lon="4.95738">
        <ele>374.4</ele>
        <time>2013-01-18T09:40:22Z</time>
      </trkpt>
      <trkpt lat="47.25567" lon="4.95727">
        <ele>376</ele>
        <time>2013-01-18T09:40:33Z</time>
      </trkpt>
      <trkpt lat="47.25582" lon="4.95713">
        <ele>378</ele>
        <time>2013-01-18T09:40:44Z</time>
      </trkpt>
      <trkpt lat="47.25592" lon="4.9571">
        <ele>379.3</ele>
        <time>2013-01-18T09:40:55Z</time>
      </trkpt>
      <trkpt lat="47.25603" lon="4.95707">
        <ele>380.5</ele>
        <time>2013-01-18T09:41:06Z</time>
      </trkpt>
      <trkpt lat="47.2562" lon="4.957">
        <ele>390.356</ele>
        <time>2013-01-18T09:41:17Z</time>
      </trkpt>
      <trkpt lat="47.25635" lon="4.95693">
        <ele>381.3</ele>
        <time>2013-01-18T09:41:28Z</time>
      </trkpt>
      <trkpt lat="47.25643" lon="4.9569">
        <ele>382.5</ele>
        <time>2013-01-18T09:41:39Z</time>
      </trkpt>
      <trkpt lat="47.25658" lon="4.95683">
        <ele>385.1</ele>
        <time>2013-01-18T09:41:50Z</time>
      </trkpt>
      <trkpt lat="47.25668" lon="4.95675">
        <ele>386.8</ele>
        <time>2013-01-18T09:42:01Z</time>
      </trkpt>
      <trkpt lat="47.25685" lon="4.95673">
        <ele>387.3</ele>
        <time>2013-01-18T09:42:12Z</time>
      </trkpt>
      <trkpt lat="47.25698" lon="4.9567">
        <ele>387.5</ele>
        <time>2013-01-18T09:42:23Z</time>
      </trkpt>
      <trkpt lat="47.25713" lon="4.95663">
        <ele>388.7</ele>
        <time>2013-01-18T09:42:34Z</time>
      </trkpt>
      <trkpt lat="47.2573" lon="4.95662">
        <ele>390.1</ele>
        <time>2013-01-18T09:42:45Z</time>
      </trkpt>
      <trkpt lat="47.25745" lon="4.95662">
        <ele>391.3</ele>
        <time>2013-01-18T09:42:56Z</time>
      </trkpt>
      <trkpt lat="47.25763" lon="4.95653">
        <ele>394.1</ele>
        <time>2013-01-18T09:43:07Z</time>
      </trkpt>
      <trkpt lat="47.2578" lon="4.95645">
        <ele>396.4</ele>
        <time>2013-01-18T09:43:18Z</time>
      </trkpt>
      <trkpt lat="47.25788" lon="4.95637">
        <ele>397.1</ele>
        <time>2013-01-18T09:43:29Z</time>
      </trkpt>
      <trkpt lat="47.258" lon="4.95618">
        <ele>399.2</ele>
        <time>2013-01-18T09:43:40Z</time>
      </trkpt>
      <trkpt lat="47.25808" lon="4.95607">
        <ele>400.1</ele>
        <time>2013-01-18T09:43:51Z</time>
      </trkpt>
      <trkpt lat="47.25815" lon="4.95595">
        <ele>401.7</ele>
        <time>2013-01-18T09:44:02Z</time>
      </trkpt>
      <trkpt lat="47.25822" lon="4.95577">
        <ele>402.4</ele>
        <time>2013-01-18T09:44:13Z</time>
      </trkpt>
      <trkpt lat="47.2583" lon="4.95563">
        <ele>401.5</ele>
        <time>2013-01-18T09:44:24Z</time>
      </trkpt>
      <trkpt lat="47.25837" lon="4.95548">
        <ele>403</ele>
        <time>2013-01-18T09:44:35Z</time>
      </trkpt>
      <trkpt lat="47.25845" lon="4.95525">
        <ele>406.1</ele>
        <time>2013-01-18T09:44:46Z</time>
      </trkpt>
      <trkpt lat="47.25853" lon="4.95508">
        <ele>406.1</ele>
        <time>2013-01-18T09:44:57Z</time>
      </trkpt>
      <trkpt lat="47.25858" lon="4.95492">
        <ele>405.2</ele>
        <time>2013-01-18T09:45:08Z</time>
      </trkpt>
      <trkpt lat="47.25862" lon="4.95477">
        <ele>405.1</ele>
        <time>2013-01-18T09:45:19Z</time>
      </trkpt>
      <trkpt lat="47.2587" lon="4.9546">
        <ele>409.3</ele>
        <time>2013-01-18T09:45:30Z</time>
      </trkpt>
      <trkpt lat="47.25875" lon="4.9544">
        <ele>410.8</ele>
        <time>2013-01-18T09:45:41Z</time>
      </trkpt>
      <trkpt lat="47.25878" lon="4.95428">
        <ele>411.5</ele>
        <time>2013-01-18T09:45:52Z</time>
      </trkpt>
      <trkpt lat="47.25882" lon="4.95415">
        <ele>411.5</ele>
        <time>2013-01-18T09:46:03Z</time>
      </trkpt>
      <trkpt lat="47.2588" lon="4.95398">
        <ele>414.4</ele>
        <time>2013-01-18T09:46:14Z</time>
      </trkpt>
      <trkpt lat="47.25882" lon="4.9539">
        <ele>414.8</ele>
        <time>2013-01-18T09:46:25Z</time>
      </trkpt>
      <trkpt lat="47.25883" lon="4.95378">
        <ele>416.9</ele>
        <time>2013-01-18T09:46:36Z</time>
      </trkpt>
      <trkpt lat="47.25883" lon="4.95365">
        <ele>420.5</ele>
        <time>2013-01-18T09:46:47Z</time>
      </trkpt>
      <trkpt lat="47.25882" lon="4.9535">
        <ele>424.1</ele>
        <time>2013-01-18T09:46:58Z</time>
      </trkpt>
      <trkpt lat="47.25883" lon="4.95345">
        <ele>424.2</ele>
        <time>2013-01-18T09:47:09Z</time>
      </trkpt>
      <trkpt lat="47.25883" lon="4.95345">
        <ele>424.2</ele>
        <time>2013-01-18T09:47:20Z</time>
      </trkpt>
      <trkpt lat="47.25883" lon="4.95345">
        <ele>424.2</ele>
        <time>2013-01-18T09:47:31Z</time>
      </trkpt>
      <trkpt lat="47.25882" lon="4.95343">
        <ele>425.1</ele>
        <time>2013-01-18T09:47:42Z</time>
      </trkpt>
      <trkpt lat="47.25882" lon="4.95343">
        <ele>425.1</ele>
        <time>2013-01-18T09:47:53Z</time>
      </trkpt>
      <trkpt lat="47.25882" lon="4.95343">
        <ele>425.1</ele>
        <time>2013-01-18T09:48:04Z</time>
      </trkpt>
      <trkpt lat="47.25882" lon="4.95343">
        <ele>425.1</ele>
        <time>2013-01-18T09:48:15Z</time>
      </trkpt>
      <trkpt lat="47.25882" lon="4.95343">
        <ele>425.1</ele>
        <time>2013-01-18T09:48:26Z</time>
      </trkpt>
      <trkpt lat="47.25882" lon="4.95343">
        <ele>422.463</ele>
        <time>2013-01-18T09:48:37Z</time>
      </trkpt>
      <trkpt lat="47.25882" lon="4.95343">
        <ele>425.1</ele>
        <time>2013-01-18T09:48:48Z</time>
      </trkpt>
      <trkpt lat="47.25882" lon="4.95343">
        <ele>425.1</ele>
        <time>2013-01-18T09:48:59Z</time>
      </trkpt>
      <trkpt lat="47.25882" lon="4.95343">
        <ele>425.1</ele>
        <time>2013-01-18T09:49:10Z</time>
      </trkpt>
      <trkpt lat="47.25882" lon="4.95342">
        <ele>425.3</ele>
        <time>2013-01-18T09:49:21Z</time>
      </trkpt>
      <trkpt lat="47.25882" lon="4.95342">
        <ele>425.3</ele>
        <time>2013-01-18T09:49:32Z</time>
      </trkpt>
      <trkpt lat="47.25882" lon="4.95343">
        <ele>425.1</ele>
        <time>2013-01-18T09:49:43Z</time>
      </trkpt>
      <trkpt lat="47.25882" lon="4.95343">
        <ele>421.156</ele>
        <time>2013-01-18T09:49:54Z</time>
      </trkpt>
      <trkpt lat="47.25882" lon="4.95343">
        <ele>425.1</ele>
        <time>2013-01-18T09:50:05Z</time>
      </trkpt>
      <trkpt lat="47.25882" lon="4.95343">
        <ele>425.1</ele>
        <time>2013-01-18T09:50:16Z</time>
      </trkpt>
      <trkpt lat="47.25882" lon="4.95343">
        <ele>425.1</ele>
        <time>2013-01-18T09:50:27Z</time>
      </trkpt>
      <trkpt lat="47.25882" lon="4.95342">
        <ele>425.3</ele>
        <time>2013-01-18T09:50:38Z</time>
      </trkpt>
      <trkpt lat="47.25882" lon="4.95342">
        <ele>425.3</ele>
        <time>2013-01-18T09:50:49Z</time>
      </trkpt>
      <trkpt lat="47.25882" lon="4.95342">
        <ele>425.3</ele>
        <time>2013-01-18T09:51:00Z</time>
      </trkpt>
      <trkpt lat="47.25882" lon="4.95342">
        <ele>425.3</ele>
        <time>2013-01-18T09:51:11Z</time>
      </trkpt>
      <trkpt lat="47.25882" lon="4.95342">
        <ele>425.3</ele>
        <time>2013-01-18T09:51:22Z</time>
      </trkpt>
      <trkpt lat="47.25882" lon="4.95342">
        <ele>425.3</ele>
        <time>2013-01-18T09:51:33Z</time>
      </trkpt>
      <trkpt lat="47.25882" lon="4.95342">
        <ele>425.3</ele>
        <time>2013-01-18T09:51:44Z</time>
      </trkpt>
      <trkpt lat="47.25882" lon="4.95342">
        <ele>425.3</ele>
        <time>2013-01-18T09:51:55Z</time>
      </trkpt>
      <trkpt lat="47.25882" lon="4.95342">
        <ele>425.3</ele>
        <time>2013-01-18T09:52:06Z</time>
      </trkpt>
      <trkpt lat="47.25882" lon="4.95342">
        <ele>425.3</ele>
        <time>2013-01-18T09:52:17Z</time>
      </trkpt>
      <trkpt lat="47.25882" lon="4.95342">
        <ele>425.3</ele>
        <time>2013-01-18T09:52:28Z</time>
      </trkpt>
      <trkpt lat="47.25882" lon="4.95338">
        <ele>425.8</ele>
        <time>2013-01-18T09:52:39Z</time>
      </trkpt>
      <trkpt lat="47.25883" lon="4.95335">
        <ele>425.7</ele>
        <time>2013-01-18T09:52:50Z</time>
      </trkpt>
      <trkpt lat="47.25885" lon="4.95317">
        <ele>426.2</ele>
        <time>2013-01-18T09:53:01Z</time>
      </trkpt>
      <trkpt lat="47.25892" lon="4.95293">
        <ele>427.1</ele>
        <time>2013-01-18T09:53:12Z</time>
      </trkpt>
      <trkpt lat="47.25897" lon="4.95277">
        <ele>429.5</ele>
        <time>2013-01-18T09:53:23Z</time>
      </trkpt>
      <trkpt lat="47.25898" lon="4.95253">
        <ele>430.8</ele>
        <time>2013-01-18T09:53:34Z</time>
      </trkpt>
      <trkpt lat="47.259" lon="4.9523">
        <ele>431.9</ele>
        <time>2013-01-18T09:53:45Z</time>
      </trkpt>
      <trkpt lat="47.25898" lon="4.95207">
        <ele>432.9</ele>
        <time>2013-01-18T09:53:56Z</time>
      </trkpt>
      <trkpt lat="47.25903" lon="4.95185">
        <ele>433.1</ele>
        <time>2013-01-18T09:54:07Z</time>
      </trkpt>
      <trkpt lat="47.25903" lon="4.95165">
        <ele>433.5</ele>
        <time>2013-01-18T09:54:18Z</time>
      </trkpt>
      <trkpt lat="47.25905" lon="4.95142">
        <ele>432.161</ele>
        <time>2013-01-18T09:54:29Z</time>
      </trkpt>
      <trkpt lat="47.25908" lon="4.95123">
        <ele>433.7</ele>
        <time>2013-01-18T09:54:40Z</time>
      </trkpt>
      <trkpt lat="47.25905" lon="4.95092">
        <ele>435.2</ele>
        <time>2013-01-18T09:54:51Z</time>
      </trkpt>
      <trkpt lat="47.25907" lon="4.9507">
        <ele>435.6</ele>
        <time>2013-01-18T09:55:02Z</time>
      </trkpt>
      <trkpt lat="47.2591" lon="4.95052">
        <ele>435.8</ele>
        <time>2013-01-18T09:55:13Z</time>
      </trkpt>
      <trkpt lat="47.25915" lon="4.9503">
        <ele>436.3</ele>
        <time>2013-01-18T09:55:24Z</time>
      </trkpt>
      <trkpt lat="47.2592" lon="4.95">
        <ele>437.8</ele>
        <time>2013-01-18T09:55:35Z</time>
      </trkpt>
      <trkpt lat="47.25928" lon="4.94982">
        <ele>440.3</ele>
        <time>2013-01-18T09:55:46Z</time>
      </trkpt>
      <trkpt lat="47.25938" lon="4.94965">
        <ele>440.5</ele>
        <time>2013-01-18T09:55:57Z</time>
      </trkpt>
      <trkpt lat="47.25947" lon="4.94948">
        <ele>440</ele>
        <time>2013-01-18T09:56:08Z</time>
      </trkpt>
      <trkpt lat="47.25952" lon="4.94933">
        <ele>441.4</ele>
        <time>2013-01-18T09:56:19Z</time>
      </trkpt>
      <trkpt lat="47.25958" lon="4.94912">
        <ele>442.3</ele>
        <time>2013-01-18T09:56:30Z</time>
      </trkpt>
      <trkpt lat="47.25967" lon="4.94892">
        <ele>442.1</ele>
        <time>2013-01-18T09:56:41Z</time>
      </trkpt>
      <trkpt lat="47.25977" lon="4.94875">
        <ele>443.6</ele>
        <time>2013-01-18T09:56:52Z</time>
      </trkpt>
      <trkpt lat="47.2599" lon="4.94863">
        <ele>445</ele>
        <time>2013-01-18T09:57:03Z</time>
      </trkpt>
      <trkpt lat="47.25998" lon="4.94852">
        <ele>445.1</ele>
        <time>2013-01-18T09:57:14Z</time>
      </trkpt>
      <trkpt lat="47.26003" lon="4.94837">
        <ele>445.6</ele>
        <time>2013-01-18T09:57:25Z</time>
      </trkpt>
      <trkpt lat="47.2601" lon="4.94815">
        <ele>449.3</ele>
        <time>2013-01-18T09:57:36Z</time>
      </trkpt>
      <trkpt lat="47.26018" lon="4.94802">
        <ele>449.6</ele>
        <time>2013-01-18T09:57:47Z</time>
      </trkpt>
      <trkpt lat="47.26027" lon="4.948">
        <ele>447.7</ele>
        <time>2013-01-18T09:57:58Z</time>
      </trkpt>
      <trkpt lat="47.26032" lon="4.94798">
        <ele>448.9</ele>
        <time>2013-01-18T09:58:09Z</time>
      </trkpt>
      <trkpt lat="47.26033" lon="4.94798">
        <ele>449.5</ele>
        <time>2013-01-18T09:58:20Z</time>
      </trkpt>
      <trkpt lat="47.26035" lon="4.94798">
        <ele>450.1</ele>
        <time>2013-01-18T09:58:31Z</time>
      </trkpt>
      <trkpt lat="47.26038" lon="4.948">
        <ele>451.3</ele>
        <time>2013-01-18T09:58:42Z</time>
      </trkpt>
      <trkpt lat="47.26045" lon="4.94803">
        <ele>453.8</ele>
        <time>2013-01-18T09:58:53Z</time>
      </trkpt>
      <trkpt lat="47.26055" lon="4.94815">
        <ele>459.1</ele>
        <time>2013-01-18T09:59:04Z</time>
      </trkpt>
      <trkpt lat="47.26063" lon="4.94835">
        <ele>462.3</ele>
        <time>2013-01-18T09:59:15Z</time>
      </trkpt>
      <trkpt lat="47.26073" lon="4.9485">
        <ele>463.2</ele>
        <time>2013-01-18T09:59:26Z</time>
      </trkpt>
      <trkpt lat="47.26075" lon="4.94855">
        <ele>463.5</ele>
        <time>2013-01-18T09:59:37Z</time>
      </trkpt>
      <trkpt lat="47.26075" lon="4.94855">
        <ele>463.5</ele>
        <time>2013-01-18T09:59:48Z</time>
      </trkpt>
      <trkpt lat="47.26075" lon="4.94855">
        <ele>463.5</ele>
        <time>2013-01-18T09:59:59Z</time>
      </trkpt>
      <trkpt lat="47.26075" lon="4.94855">
        <ele>463.5</ele>
        <time>2013-01-18T10:00:10Z</time>
      </trkpt>
      <trkpt lat="47.26075" lon="4.94855">
        <ele>463.5</ele>
        <time>2013-01-18T10:00:21Z</time>
      </trkpt>
      <trkpt lat="47.26075" lon="4.94855">
        <ele>463.5</ele>
        <time>2013-01-18T10:00:32Z</time>
      </trkpt>
      <trkpt lat="47.26075" lon="4.94855">
        <ele>463.5</ele>
        <time>2013-01-18T10:00:43Z</time>
      </trkpt>
      <trkpt lat="47.26075" lon="4.94857">
        <ele>463.5</ele>
        <time>2013-01-18T10:00:54Z</time>
      </trkpt>
      <trkpt lat="47.26073" lon="4.94877">
        <ele>464</ele>
        <time>2013-01-18T10:01:05Z</time>
      </trkpt>
      <trkpt lat="47.26072" lon="4.94895">
        <ele>464.3</ele>
        <time>2013-01-18T10:01:16Z</time>
      </trkpt>
      <trkpt lat="47.2607" lon="4.94917">
        <ele>464.5</ele>
        <time>2013-01-18T10:01:27Z</time>
      </trkpt>
      <trkpt lat="47.2607" lon="4.94937">
        <ele>464.5</ele>
        <time>2013-01-18T10:01:38Z</time>
      </trkpt>
      <trkpt lat="47.26068" lon="4.94955">
        <ele>464.5</ele>
        <time>2013-01-18T10:01:49Z</time>
      </trkpt>
      <trkpt lat="47.26072" lon="4.94973">
        <ele>464.6</ele>
        <time>2013-01-18T10:02:00Z</time>
      </trkpt>
      <trkpt lat="47.26075" lon="4.94992">
        <ele>464.5</ele>
        <time>2013-01-18T10:02:11Z</time>
      </trkpt>
      <trkpt lat="47.26078" lon="4.95012">
        <ele>464.3</ele>
        <time>2013-01-18T10:02:22Z</time>
      </trkpt>
      <trkpt lat="47.26087" lon="4.95033">
        <ele>464.2</ele>
        <time>2013-01-18T10:02:33Z</time>
      </trkpt>
      <trkpt lat="47.26092" lon="4.95053">
        <ele>464.3</ele>
        <time>2013-01-18T10:02:44Z</time>
      </trkpt>
      <trkpt lat="47.26095" lon="4.95077">
        <ele>464</ele>
        <time>2013-01-18T10:02:55Z</time>
      </trkpt>
      <trkpt lat="47.26098" lon="4.951">
        <ele>463.8</ele>
        <time>2013-01-18T10:03:06Z</time>
      </trkpt>
      <trkpt lat="47.26107" lon="4.95122">
        <ele>463.8</ele>
        <time>2013-01-18T10:03:17Z</time>
      </trkpt>
      <trkpt lat="47.26107" lon="4.9514">
        <ele>463.7</ele>
        <time>2013-01-18T10:03:28Z</time>
      </trkpt>
      <trkpt lat="47.26108" lon="4.95163">
        <ele>463.7</ele>
        <time>2013-01-18T10:03:39Z</time>
      </trkpt>
      <trkpt lat="47.2611" lon="4.95188">
        <ele>463.9</ele>
        <time>2013-01-18T10:03:50Z</time>
      </trkpt>
      <trkpt lat="47.26112" lon="4.95213">
        <ele>463.4</ele>
        <time>2013-01-18T10:04:01Z</time>
      </trkpt>
      <trkpt lat="47.26113" lon="4.95235">
        <ele>463.2</ele>
        <time>2013-01-18T10:04:12Z</time>
      </trkpt>
      <trkpt lat="47.26118" lon="4.95257">
        <ele>463.5</ele>
        <time>2013-01-18T10:04:23Z</time>
      </trkpt>
      <trkpt lat="47.26123" lon="4.9528">
        <ele>463.4</ele>
        <time>2013-01-18T10:04:34Z</time>
      </trkpt>
      <trkpt lat="47.26128" lon="4.95297">
        <ele>463.6</ele>
        <time>2013-01-18T10:04:45Z</time>
      </trkpt>
      <trkpt lat="47.26132" lon="4.95315">
        <ele>463.7</ele>
        <time>2013-01-18T10:04:56Z</time>
      </trkpt>
      <trkpt lat="47.26138" lon="4.95333">
        <ele>464</ele>
        <time>2013-01-18T10:05:07Z</time>
      </trkpt>
      <trkpt lat="47.26145" lon="4.95353">
        <ele>464.2</ele>
        <time>2013-01-18T10:05:18Z</time>
      </trkpt>
      <trkpt lat="47.26155" lon="4.95373">
        <ele>464.6</ele>
        <time>2013-01-18T10:05:29Z</time>
      </trkpt>
      <trkpt lat="47.26165" lon="4.95392">
        <ele>464.8</ele>
        <time>2013-01-18T10:05:40Z</time>
      </trkpt>
      <trkpt lat="47.26172" lon="4.95415">
        <ele>464.2</ele>
        <time>2013-01-18T10:05:51Z</time>
      </trkpt>
      <trkpt lat="47.26178" lon="4.95438">
        <ele>464.4</ele>
        <time>2013-01-18T10:06:02Z</time>
      </trkpt>
      <trkpt lat="47.26182" lon="4.95453">
        <ele>464.4</ele>
        <time>2013-01-18T10:06:13Z</time>
      </trkpt>
      <trkpt lat="47.26185" lon="4.9547">
        <ele>464.1</ele>
        <time>2013-01-18T10:06:24Z</time>
      </trkpt>
      <trkpt lat="47.26188" lon="4.95492">
        <ele>463.8</ele>
        <time>2013-01-18T10:06:35Z</time>
      </trkpt>
      <trkpt lat="47.26193" lon="4.95515">
        <ele>464</ele>
        <time>2013-01-18T10:06:46Z</time>
      </trkpt>
      <trkpt lat="47.26197" lon="4.95532">
        <ele>463.9</ele>
        <time>2013-01-18T10:06:57Z</time>
      </trkpt>
      <trkpt lat="47.26198" lon="4.9556">
        <ele>463.1</ele>
        <time>2013-01-18T10:07:08Z</time>
      </trkpt>
      <trkpt lat="47.26203" lon="4.9558">
        <ele>463</ele>
        <time>2013-01-18T10:07:19Z</time>
      </trkpt>
      <trkpt lat="47.26207" lon="4.95602">
        <ele>462.6</ele>
        <time>2013-01-18T10:07:30Z</time>
      </trkpt>
      <trkpt lat="47.26213" lon="4.95625">
        <ele>462.2</ele>
        <time>2013-01-18T10:07:41Z</time>
      </trkpt>
      <trkpt lat="47.26222" lon="4.95648">
        <ele>462</ele>
        <time>2013-01-18T10:07:52Z</time>
      </trkpt>
      <trkpt lat="47.2623" lon="4.95673">
        <ele>461.8</ele>
        <time>2013-01-18T10:08:03Z</time>
      </trkpt>
      <trkpt lat="47.26237" lon="4.95693">
        <ele>461.5</ele>
        <time>2013-01-18T10:08:14Z</time>
      </trkpt>
      <trkpt lat="47.26243" lon="4.95717">
        <ele>461</ele>
        <time>2013-01-18T10:08:25Z</time>
      </trkpt>
      <trkpt lat="47.26247" lon="4.9574">
        <ele>460.3</ele>
        <time>2013-01-18T10:08:36Z</time>
      </trkpt>
      <trkpt lat="47.26258" lon="4.95758">
        <ele>460.2</ele>
        <time>2013-01-18T10:08:47Z</time>
      </trkpt>
      <trkpt lat="47.26268" lon="4.95775">
        <ele>460.1</ele>
        <time>2013-01-18T10:08:58Z</time>
      </trkpt>
      <trkpt lat="47.26282" lon="4.95788">
        <ele>459.7</ele>
        <time>2013-01-18T10:09:09Z</time>
      </trkpt>
      <trkpt lat="47.2629" lon="4.958">
        <ele>459.6</ele>
        <time>2013-01-18T10:09:20Z</time>
      </trkpt>
      <trkpt lat="47.26298" lon="4.95805">
        <ele>459.7</ele>
        <time>2013-01-18T10:09:31Z</time>
      </trkpt>
      <trkpt lat="47.2631" lon="4.95817">
        <ele>459.5</ele>
        <time>2013-01-18T10:09:42Z</time>
      </trkpt>
      <trkpt lat="47.26323" lon="4.95828">
        <ele>459.1</ele>
        <time>2013-01-18T10:09:53Z</time>
      </trkpt>
      <trkpt lat="47.26333" lon="4.95838">
        <ele>458.8</ele>
        <time>2013-01-18T10:10:04Z</time>
      </trkpt>
      <trkpt lat="47.26343" lon="4.95852">
        <ele>458</ele>
        <time>2013-01-18T10:10:15Z</time>
      </trkpt>
      <trkpt lat="47.26357" lon="4.95855">
        <ele>457.4</ele>
        <time>2013-01-18T10:10:26Z</time>
      </trkpt>
      <trkpt lat="47.26375" lon="4.95865">
        <ele>456.9</ele>
        <time>2013-01-18T10:10:37Z</time>
      </trkpt>
      <trkpt lat="47.26387" lon="4.95877">
        <ele>456.4</ele>
        <time>2013-01-18T10:10:48Z</time>
      </trkpt>
      <trkpt lat="47.26402" lon="4.95887">
        <ele>455.7</ele>
        <time>2013-01-18T10:10:59Z</time>
      </trkpt>
      <trkpt lat="47.26413" lon="4.95898">
        <ele>454.7</ele>
        <time>2013-01-18T10:11:10Z</time>
      </trkpt>
      <trkpt lat="47.26425" lon="4.95915">
        <ele>454.1</ele>
        <time>2013-01-18T10:11:21Z</time>
      </trkpt>
      <trkpt lat="47.26432" lon="4.95935">
        <ele>453.4</ele>
        <time>2013-01-18T10:11:32Z</time>
      </trkpt>
      <trkpt lat="47.26423" lon="4.9595">
        <ele>452.1</ele>
        <time>2013-01-18T10:11:43Z</time>
      </trkpt>
      <trkpt lat="47.2642" lon="4.95973">
        <ele>450.3</ele>
        <time>2013-01-18T10:11:54Z</time>
      </trkpt>
      <trkpt lat="47.26428" lon="4.9599">
        <ele>450.6</ele>
        <time>2013-01-18T10:12:05Z</time>
      </trkpt>
      <trkpt lat="47.26435" lon="4.9601">
        <ele>450.5</ele>
        <time>2013-01-18T10:12:16Z</time>
      </trkpt>
      <trkpt lat="47.2643" lon="4.96023">
        <ele>449.2</ele>
        <time>2013-01-18T10:12:27Z</time>
      </trkpt>
      <trkpt lat="47.26428" lon="4.96038">
        <ele>446.4</ele>
        <time>2013-01-18T10:12:38Z</time>
      </trkpt>
      <trkpt lat="47.26432" lon="4.96047">
        <ele>445.6</ele>
        <time>2013-01-18T10:12:49Z</time>
      </trkpt>
      <trkpt lat="47.26442" lon="4.96067">
        <ele>446.9</ele>
        <time>2013-01-18T10:13:00Z</time>
      </trkpt>
      <trkpt lat="47.26448" lon="4.96083">
        <ele>447.6</ele>
        <time>2013-01-18T10:13:11Z</time>
      </trkpt>
      <trkpt lat="47.26453" lon="4.96102">
        <ele>444.7</ele>
        <time>2013-01-18T10:13:22Z</time>
      </trkpt>
      <trkpt lat="47.26457" lon="4.96122">
        <ele>442.3</ele>
        <time>2013-01-18T10:13:33Z</time>
      </trkpt>
      <trkpt lat="47.2646" lon="4.96142">
        <ele>441.3</ele>
        <time>2013-01-18T10:13:44Z</time>
      </trkpt>
      <trkpt lat="47.26465" lon="4.96163">
        <ele>443.4</ele>
        <time>2013-01-18T10:13:55Z</time>
      </trkpt>
      <trkpt lat="47.26468" lon="4.96187">
        <ele>445.2</ele>
        <time>2013-01-18T10:14:06Z</time>
      </trkpt>
      <trkpt lat="47.26467" lon="4.96213">
        <ele>443.9</ele>
        <time>2013-01-18T10:14:17Z</time>
      </trkpt>
      <trkpt lat="47.26465" lon="4.96237">
        <ele>443.3</ele>
        <time>2013-01-18T10:14:28Z</time>
      </trkpt>
      <trkpt lat="47.26465" lon="4.9626">
        <ele>443.6</ele>
        <time>2013-01-18T10:14:39Z</time>
      </trkpt>
      <trkpt lat="47.26462" lon="4.96283">
        <ele>443.1</ele>
        <time>2013-01-18T10:14:50Z</time>
      </trkpt>
      <trkpt lat="47.26458" lon="4.96303">
        <ele>442.9</ele>
        <time>2013-01-18T10:15:01Z</time>
      </trkpt>
      <trkpt lat="47.26453" lon="4.96325">
        <ele>442.1</ele>
        <time>2013-01-18T10:15:12Z</time>
      </trkpt>
      <trkpt lat="47.2645" lon="4.9635">
        <ele>441.5</ele>
        <time>2013-01-18T10:15:23Z</time>
      </trkpt>
      <trkpt lat="47.26443" lon="4.96373">
        <ele>440.1</ele>
        <time>2013-01-18T10:15:34Z</time>
      </trkpt>
      <trkpt lat="47.26438" lon="4.96397">
        <ele>438.4</ele>
        <time>2013-01-18T10:15:45Z</time>
      </trkpt>
      <trkpt lat="47.26433" lon="4.96418">
        <ele>437.7</ele>
        <time>2013-01-18T10:15:56Z</time>
      </trkpt>
      <trkpt lat="47.26428" lon="4.96437">
        <ele>436.7</ele>
        <time>2013-01-18T10:16:07Z</time>
      </trkpt>
      <trkpt lat="47.26422" lon="4.96455">
        <ele>435.4</ele>
        <time>2013-01-18T10:16:18Z</time>
      </trkpt>
      <trkpt lat="47.26417" lon="4.96472">
        <ele>434</ele>
        <time>2013-01-18T10:16:29Z</time>
      </trkpt>
      <trkpt lat="47.2642" lon="4.96495">
        <ele>432.5</ele>
        <time>2013-01-18T10:16:40Z</time>
      </trkpt>
      <trkpt lat="47.26428" lon="4.96515">
        <ele>431.9</ele>
        <time>2013-01-18T10:16:51Z</time>
      </trkpt>
      <trkpt lat="47.2644" lon="4.96527">
        <ele>431.9</ele>
        <time>2013-01-18T10:17:02Z</time>
      </trkpt>
      <trkpt lat="47.26447" lon="4.9654">
        <ele>431.2</ele>
        <time>2013-01-18T10:17:13Z</time>
      </trkpt>
      <trkpt lat="47.26455" lon="4.96547">
        <ele>431</ele>
        <time>2013-01-18T10:17:24Z</time>
      </trkpt>
      <trkpt lat="47.26465" lon="4.96545">
        <ele>431.5</ele>
        <time>2013-01-18T10:17:35Z</time>
      </trkpt>
      <trkpt lat="47.26472" lon="4.96533">
        <ele>432.6</ele>
        <time>2013-01-18T10:17:46Z</time>
      </trkpt>
      <trkpt lat="47.2648" lon="4.96522">
        <ele>433.7</ele>
        <time>2013-01-18T10:17:57Z</time>
      </trkpt>
      <trkpt lat="47.2649" lon="4.96508">
        <ele>435</ele>
        <time>2013-01-18T10:18:08Z</time>
      </trkpt>
      <trkpt lat="47.26502" lon="4.96495">
        <ele>436.2</ele>
        <time>2013-01-18T10:18:19Z</time>
      </trkpt>
      <trkpt lat="47.26512" lon="4.96482">
        <ele>437.1</ele>
        <time>2013-01-18T10:18:30Z</time>
      </trkpt>
      <trkpt lat="47.26522" lon="4.96467">
        <ele>438.2</ele>
        <time>2013-01-18T10:18:41Z</time>
      </trkpt>
      <trkpt lat="47.26532" lon="4.96452">
        <ele>439.6</ele>
        <time>2013-01-18T10:18:52Z</time>
      </trkpt>
      <trkpt lat="47.26538" lon="4.96433">
        <ele>440.8</ele>
        <time>2013-01-18T10:19:03Z</time>
      </trkpt>
      <trkpt lat="47.26545" lon="4.96415">
        <ele>441.7</ele>
        <time>2013-01-18T10:19:14Z</time>
      </trkpt>
      <trkpt lat="47.2655" lon="4.96393">
        <ele>442.8</ele>
        <time>2013-01-18T10:19:25Z</time>
      </trkpt>
      <trkpt lat="47.26557" lon="4.96377">
        <ele>443.5</ele>
        <time>2013-01-18T10:19:36Z</time>
      </trkpt>
      <trkpt lat="47.2657" lon="4.9638">
        <ele>443.5</ele>
        <time>2013-01-18T10:19:47Z</time>
      </trkpt>
      <trkpt lat="47.26582" lon="4.96397">
        <ele>443.171</ele>
        <time>2013-01-18T10:19:58Z</time>
      </trkpt>
      <trkpt lat="47.26588" lon="4.96412">
        <ele>442.2</ele>
        <time>2013-01-18T10:20:09Z</time>
      </trkpt>
      <trkpt lat="47.266" lon="4.96425">
        <ele>441.7</ele>
        <time>2013-01-18T10:20:20Z</time>
      </trkpt>
      <trkpt lat="47.26615" lon="4.96432">
        <ele>441.5</ele>
        <time>2013-01-18T10:20:31Z</time>
      </trkpt>
      <trkpt lat="47.26625" lon="4.9643">
        <ele>441.5</ele>
        <time>2013-01-18T10:20:42Z</time>
      </trkpt>
      <trkpt lat="47.26637" lon="4.96423">
        <ele>441.8</ele>
        <time>2013-01-18T10:20:53Z</time>
      </trkpt>
      <trkpt lat="47.26652" lon="4.96428">
        <ele>441.1</ele>
        <time>2013-01-18T10:21:04Z</time>
      </trkpt>
      <trkpt lat="47.26665" lon="4.96432">
        <ele>440.5</ele>
        <time>2013-01-18T10:21:15Z</time>
      </trkpt>
      <trkpt lat="47.26677" lon="4.96442">
        <ele>440.5</ele>
        <time>2013-01-18T10:21:26Z</time>
      </trkpt>
      <trkpt lat="47.26688" lon="4.96438">
        <ele>441</ele>
        <time>2013-01-18T10:21:37Z</time>
      </trkpt>
      <trkpt lat="47.26697" lon="4.96433">
        <ele>441.4</ele>
        <time>2013-01-18T10:21:48Z</time>
      </trkpt>
      <trkpt lat="47.26708" lon="4.9644">
        <ele>440.7</ele>
        <time>2013-01-18T10:21:59Z</time>
      </trkpt>
      <trkpt lat="47.26722" lon="4.9644">
        <ele>440.3</ele>
        <time>2013-01-18T10:22:10Z</time>
      </trkpt>
      <trkpt lat="47.26732" lon="4.9643">
        <ele>441</ele>
        <time>2013-01-18T10:22:21Z</time>
      </trkpt>
      <trkpt lat="47.26747" lon="4.96425">
        <ele>440.821</ele>
        <time>2013-01-18T10:22:32Z</time>
      </trkpt>
      <trkpt lat="47.2676" lon="4.96423">
        <ele>441.5</ele>
        <time>2013-01-18T10:22:43Z</time>
      </trkpt>
      <trkpt lat="47.26778" lon="4.96417">
        <ele>442</ele>
        <time>2013-01-18T10:22:54Z</time>
      </trkpt>
      <trkpt lat="47.26795" lon="4.96415">
        <ele>441.5</ele>
        <time>2013-01-18T10:23:05Z</time>
      </trkpt>
      <trkpt lat="47.26812" lon="4.96415">
        <ele>441.1</ele>
        <time>2013-01-18T10:23:16Z</time>
      </trkpt>
      <trkpt lat="47.26828" lon="4.96415">
        <ele>441.1</ele>
        <time>2013-01-18T10:23:27Z</time>
      </trkpt>
      <trkpt lat="47.26842" lon="4.96422">
        <ele>440.3</ele>
        <time>2013-01-18T10:23:38Z</time>
      </trkpt>
      <trkpt lat="47.26853" lon="4.9642">
        <ele>440</ele>
        <time>2013-01-18T10:23:49Z</time>
      </trkpt>
      <trkpt lat="47.26867" lon="4.96418">
        <ele>439.7</ele>
        <time>2013-01-18T10:24:00Z</time>
      </trkpt>
      <trkpt lat="47.2688" lon="4.96415">
        <ele>439.4</ele>
        <time>2013-01-18T10:24:11Z</time>
      </trkpt>
      <trkpt lat="47.26898" lon="4.96413">
        <ele>439.2</ele>
        <time>2013-01-18T10:24:22Z</time>
      </trkpt>
      <trkpt lat="47.26912" lon="4.96415">
        <ele>439.1</ele>
        <time>2013-01-18T10:24:33Z</time>
      </trkpt>
      <trkpt lat="47.26918" lon="4.96412">
        <ele>439.4</ele>
        <time>2013-01-18T10:24:44Z</time>
      </trkpt>
      <trkpt lat="47.26933" lon="4.96398">
        <ele>440.3</ele>
        <time>2013-01-18T10:24:55Z</time>
      </trkpt>
      <trkpt lat="47.26943" lon="4.96393">
        <ele>440.7</ele>
        <time>2013-01-18T10:25:06Z</time>
      </trkpt>
      <trkpt lat="47.26957" lon="4.96387">
        <ele>440.7</ele>
        <time>2013-01-18T10:25:17Z</time>
      </trkpt>
      <trkpt lat="47.26968" lon="4.96387">
        <ele>440.3</ele>
        <time>2013-01-18T10:25:28Z</time>
      </trkpt>
      <trkpt lat="47.26983" lon="4.96387">
        <ele>439.8</ele>
        <time>2013-01-18T10:25:39Z</time>
      </trkpt>
      <trkpt lat="47.26995" lon="4.96383">
        <ele>439.6</ele>
        <time>2013-01-18T10:25:50Z</time>
      </trkpt>
      <trkpt lat="47.27007" lon="4.96378">
        <ele>439.5</ele>
        <time>2013-01-18T10:26:01Z</time>
      </trkpt>
      <trkpt lat="47.27022" lon="4.96377">
        <ele>439.1</ele>
        <time>2013-01-18T10:26:12Z</time>
      </trkpt>
      <trkpt lat="47.2704" lon="4.96368">
        <ele>439.5</ele>
        <time>2013-01-18T10:26:23Z</time>
      </trkpt>
      <trkpt lat="47.27057" lon="4.96365">
        <ele>439.7</ele>
        <time>2013-01-18T10:26:34Z</time>
      </trkpt>
      <trkpt lat="47.2707" lon="4.9636">
        <ele>439.6</ele>
        <time>2013-01-18T10:26:45Z</time>
      </trkpt>
      <trkpt lat="47.27082" lon="4.96352">
        <ele>439.7</ele>
        <time>2013-01-18T10:26:56Z</time>
      </trkpt>
      <trkpt lat="47.27093" lon="4.96345">
        <ele>439.6</ele>
        <time>2013-01-18T10:27:07Z</time>
      </trkpt>
      <trkpt lat="47.27102" lon="4.96325">
        <ele>440.2</ele>
        <time>2013-01-18T10:27:18Z</time>
      </trkpt>
      <trkpt lat="47.27112" lon="4.96305">
        <ele>441</ele>
        <time>2013-01-18T10:27:29Z</time>
      </trkpt>
      <trkpt lat="47.27118" lon="4.96295">
        <ele>441.1</ele>
        <time>2013-01-18T10:27:40Z</time>
      </trkpt>
      <trkpt lat="47.27125" lon="4.96282">
        <ele>441.4</ele>
        <time>2013-01-18T10:27:51Z</time>
      </trkpt>
      <trkpt lat="47.27132" lon="4.96272">
        <ele>441.5</ele>
        <time>2013-01-18T10:28:02Z</time>
      </trkpt>
      <trkpt lat="47.2714" lon="4.96253">
        <ele>441.6</ele>
        <time>2013-01-18T10:28:13Z</time>
      </trkpt>
      <trkpt lat="47.27155" lon="4.9624">
        <ele>439.3</ele>
        <time>2013-01-18T10:28:24Z</time>
      </trkpt>
      <trkpt lat="47.27167" lon="4.96225">
        <ele>440.4</ele>
        <time>2013-01-18T10:28:35Z</time>
      </trkpt>
      <trkpt lat="47.27177" lon="4.9621">
        <ele>439.9</ele>
        <time>2013-01-18T10:28:46Z</time>
      </trkpt>
      <trkpt lat="47.27185" lon="4.96195">
        <ele>441.2</ele>
        <time>2013-01-18T10:28:57Z</time>
      </trkpt>
      <trkpt lat="47.2719" lon="4.96178">
        <ele>441.7</ele>
        <time>2013-01-18T10:29:08Z</time>
      </trkpt>
      <trkpt lat="47.27193" lon="4.9616">
        <ele>442.5</ele>
        <time>2013-01-18T10:29:19Z</time>
      </trkpt>
      <trkpt lat="47.27197" lon="4.96152">
        <ele>442.7</ele>
        <time>2013-01-18T10:29:30Z</time>
      </trkpt>
      <trkpt lat="47.27203" lon="4.9614">
        <ele>442.6</ele>
        <time>2013-01-18T10:29:41Z</time>
      </trkpt>
      <trkpt lat="47.27215" lon="4.9612">
        <ele>441</ele>
        <time>2013-01-18T10:29:52Z</time>
      </trkpt>
      <trkpt lat="47.2722" lon="4.96103">
        <ele>440.5</ele>
        <time>2013-01-18T10:30:03Z</time>
      </trkpt>
      <trkpt lat="47.2722" lon="4.96102">
        <ele>429.096</ele>
        <time>2013-01-18T10:30:14Z</time>
      </trkpt>
      <trkpt lat="47.2722" lon="4.96102">
        <ele>440.6</ele>
        <time>2013-01-18T10:30:25Z</time>
      </trkpt>
      <trkpt lat="47.2722" lon="4.96102">
        <ele>440.6</ele>
        <time>2013-01-18T10:30:36Z</time>
      </trkpt>
      <trkpt lat="47.2722" lon="4.96102">
        <ele>440.6</ele>
        <time>2013-01-18T10:30:47Z</time>
      </trkpt>
      <trkpt lat="47.2722" lon="4.961">
        <ele>440.6</ele>
        <time>2013-01-18T10:30:58Z</time>
      </trkpt>
      <trkpt lat="47.2722" lon="4.96098">
        <ele>440.7</ele>
        <time>2013-01-18T10:31:09Z</time>
      </trkpt>
      <trkpt lat="47.2722" lon="4.96098">
        <ele>440.7</ele>
        <time>2013-01-18T10:31:20Z</time>
      </trkpt>
      <trkpt lat="47.2722" lon="4.96098">
        <ele>440.7</ele>
        <time>2013-01-18T10:31:31Z</time>
      </trkpt>
      <trkpt lat="47.27222" lon="4.96097">
        <ele>440.6</ele>
        <time>2013-01-18T10:31:42Z</time>
      </trkpt>
      <trkpt lat="47.27222" lon="4.96097">
        <ele>440.6</ele>
        <time>2013-01-18T10:31:53Z</time>
      </trkpt>
      <trkpt lat="47.27222" lon="4.96097">
        <ele>440.6</ele>
        <time>2013-01-18T10:32:04Z</time>
      </trkpt>
      <trkpt lat="47.27222" lon="4.96097">
        <ele>440.6</ele>
        <time>2013-01-18T10:32:15Z</time>
      </trkpt>
      <trkpt lat="47.27222" lon="4.96097">
        <ele>440.6</ele>
        <time>2013-01-18T10:32:26Z</time>
      </trkpt>
      <trkpt lat="47.27222" lon="4.96097">
        <ele>440.6</ele>
        <time>2013-01-18T10:32:37Z</time>
      </trkpt>
      <trkpt lat="47.27222" lon="4.96095">
        <ele>440.6</ele>
        <time>2013-01-18T10:32:48Z</time>
      </trkpt>
      <trkpt lat="47.27227" lon="4.96098">
        <ele>440.9</ele>
        <time>2013-01-18T10:32:59Z</time>
      </trkpt>
      <trkpt lat="47.27232" lon="4.96108">
        <ele>441.1</ele>
        <time>2013-01-18T10:33:10Z</time>
      </trkpt>
      <trkpt lat="47.27238" lon="4.96117">
        <ele>441.4</ele>
        <time>2013-01-18T10:33:21Z</time>
      </trkpt>
      <trkpt lat="47.27245" lon="4.96135">
        <ele>440.3</ele>
        <time>2013-01-18T10:33:32Z</time>
      </trkpt>
      <trkpt lat="47.27252" lon="4.96145">
        <ele>439.5</ele>
        <time>2013-01-18T10:33:43Z</time>
      </trkpt>
      <trkpt lat="47.27258" lon="4.9616">
        <ele>439.4</ele>
        <time>2013-01-18T10:33:54Z</time>
      </trkpt>
      <trkpt lat="47.27263" lon="4.96178">
        <ele>439</ele>
        <time>2013-01-18T10:34:05Z</time>
      </trkpt>
      <trkpt lat="47.27272" lon="4.96198">
        <ele>441</ele>
        <time>2013-01-18T10:34:16Z</time>
      </trkpt>
      <trkpt lat="47.27277" lon="4.96218">
        <ele>443.3</ele>
        <time>2013-01-18T10:34:27Z</time>
      </trkpt>
      <trkpt lat="47.2728" lon="4.96235">
        <ele>444.2</ele>
        <time>2013-01-18T10:34:38Z</time>
      </trkpt>
      <trkpt lat="47.2728" lon="4.96258">
        <ele>444.2</ele>
        <time>2013-01-18T10:34:49Z</time>
      </trkpt>
      <trkpt lat="47.27277" lon="4.96278">
        <ele>443.5</ele>
        <time>2013-01-18T10:35:00Z</time>
      </trkpt>
      <trkpt lat="47.27277" lon="4.96292">
        <ele>443.1</ele>
        <time>2013-01-18T10:35:11Z</time>
      </trkpt>
      <trkpt lat="47.27273" lon="4.9631">
        <ele>441.9</ele>
        <time>2013-01-18T10:35:22Z</time>
      </trkpt>
      <trkpt lat="47.2727" lon="4.96328">
        <ele>441.3</ele>
        <time>2013-01-18T10:35:33Z</time>
      </trkpt>
      <trkpt lat="47.27268" lon="4.96337">
        <ele>440.9</ele>
        <time>2013-01-18T10:35:44Z</time>
      </trkpt>
      <trkpt lat="47.27267" lon="4.96348">
        <ele>440.3</ele>
        <time>2013-01-18T10:35:55Z</time>
      </trkpt>
      <trkpt lat="47.27265" lon="4.96372">
        <ele>439.5</ele>
        <time>2013-01-18T10:36:06Z</time>
      </trkpt>
      <trkpt lat="47.2726" lon="4.96393">
        <ele>434.547</ele>
        <time>2013-01-18T10:36:17Z</time>
      </trkpt>
      <trkpt lat="47.27253" lon="4.96417">
        <ele>438.4</ele>
        <time>2013-01-18T10:36:28Z</time>
      </trkpt>
      <trkpt lat="47.2725" lon="4.96437">
        <ele>438</ele>
        <time>2013-01-18T10:36:39Z</time>
      </trkpt>
      <trkpt lat="47.27245" lon="4.9645">
        <ele>436.3</ele>
        <time>2013-01-18T10:36:50Z</time>
      </trkpt>
      <trkpt lat="47.27238" lon="4.96467">
        <ele>434.8</ele>
        <time>2013-01-18T10:37:01Z</time>
      </trkpt>
      <trkpt lat="47.27228" lon="4.96488">
        <ele>433</ele>
        <time>2013-01-18T10:37:12Z</time>
      </trkpt>
      <trkpt lat="47.27228" lon="4.96507">
        <ele>433.7</ele>
        <time>2013-01-18T10:37:23Z</time>
      </trkpt>
      <trkpt lat="47.2722" lon="4.96537">
        <ele>433.4</ele>
        <time>2013-01-18T10:37:34Z</time>
      </trkpt>
      <trkpt lat="47.27215" lon="4.96563">
        <ele>433.1</ele>
        <time>2013-01-18T10:37:45Z</time>
      </trkpt>
      <trkpt lat="47.27205" lon="4.96583">
        <ele>433.1</ele>
        <time>2013-01-18T10:37:56Z</time>
      </trkpt>
      <trkpt lat="47.272" lon="4.96618">
        <ele>433.8</ele>
        <time>2013-01-18T10:38:07Z</time>
      </trkpt>
      <trkpt lat="47.27198" lon="4.96648">
        <ele>434.2</ele>
        <time>2013-01-18T10:38:18Z</time>
      </trkpt>
      <trkpt lat="47.272" lon="4.96675">
        <ele>433.9</ele>
        <time>2013-01-18T10:38:29Z</time>
      </trkpt>
      <trkpt lat="47.27203" lon="4.96695">
        <ele>433.3</ele>
        <time>2013-01-18T10:38:40Z</time>
      </trkpt>
      <trkpt lat="47.27208" lon="4.96715">
        <ele>433.5</ele>
        <time>2013-01-18T10:38:51Z</time>
      </trkpt>
      <trkpt lat="47.2721" lon="4.96727">
        <ele>433.4</ele>
        <time>2013-01-18T10:39:02Z</time>
      </trkpt>
      <trkpt lat="47.2721" lon="4.9674">
        <ele>432.9</ele>
        <time>2013-01-18T10:39:13Z</time>
      </trkpt>
      <trkpt lat="47.27208" lon="4.96758">
        <ele>432.2</ele>
        <time>2013-01-18T10:39:24Z</time>
      </trkpt>
      <trkpt lat="47.27205" lon="4.96787">
        <ele>431.4</ele>
        <time>2013-01-18T10:39:35Z</time>
      </trkpt>
      <trkpt lat="47.27203" lon="4.96818">
        <ele>430.5</ele>
        <time>2013-01-18T10:39:46Z</time>
      </trkpt>
      <trkpt lat="47.27207" lon="4.96845">
        <ele>429.3</ele>
        <time>2013-01-18T10:39:57Z</time>
      </trkpt>
      <trkpt lat="47.2721" lon="4.96865">
        <ele>428.4</ele>
        <time>2013-01-18T10:40:08Z</time>
      </trkpt>
      <trkpt lat="47.27215" lon="4.96887">
        <ele>427.8</ele>
        <time>2013-01-18T10:40:19Z</time>
      </trkpt>
      <trkpt lat="47.27218" lon="4.96912">
        <ele>426.2</ele>
        <time>2013-01-18T10:40:30Z</time>
      </trkpt>
      <trkpt lat="47.27222" lon="4.96933">
        <ele>424.8</ele>
        <time>2013-01-18T10:40:41Z</time>
      </trkpt>
      <trkpt lat="47.27218" lon="4.96957">
        <ele>423.4</ele>
        <time>2013-01-18T10:40:52Z</time>
      </trkpt>
      <trkpt lat="47.27215" lon="4.96977">
        <ele>422.2</ele>
        <time>2013-01-18T10:41:03Z</time>
      </trkpt>
      <trkpt lat="47.27213" lon="4.97">
        <ele>420.4</ele>
        <time>2013-01-18T10:41:14Z</time>
      </trkpt>
      <trkpt lat="47.27217" lon="4.97015">
        <ele>420.2</ele>
        <time>2013-01-18T10:41:25Z</time>
      </trkpt>
      <trkpt lat="47.27225" lon="4.97027">
        <ele>420.2</ele>
        <time>2013-01-18T10:41:36Z</time>
      </trkpt>
      <trkpt lat="47.27232" lon="4.97038">
        <ele>420</ele>
        <time>2013-01-18T10:41:47Z</time>
      </trkpt>
      <trkpt lat="47.27247" lon="4.9705">
        <ele>420.9</ele>
        <time>2013-01-18T10:41:58Z</time>
      </trkpt>
      <trkpt lat="47.2726" lon="4.9706">
        <ele>421.6</ele>
        <time>2013-01-18T10:42:09Z</time>
      </trkpt>
      <trkpt lat="47.2727" lon="4.97068">
        <ele>422</ele>
        <time>2013-01-18T10:42:20Z</time>
      </trkpt>
      <trkpt lat="47.27285" lon="4.97077">
        <ele>422.8</ele>
        <time>2013-01-18T10:42:31Z</time>
      </trkpt>
      <trkpt lat="47.27298" lon="4.97083">
        <ele>414.421</ele>
        <time>2013-01-18T10:42:42Z</time>
      </trkpt>
      <trkpt lat="47.27305" lon="4.97098">
        <ele>422.9</ele>
        <time>2013-01-18T10:42:53Z</time>
      </trkpt>
      <trkpt lat="47.27322" lon="4.97108">
        <ele>422.8</ele>
        <time>2013-01-18T10:43:04Z</time>
      </trkpt>
      <trkpt lat="47.27338" lon="4.97115">
        <ele>422.9</ele>
        <time>2013-01-18T10:43:15Z</time>
      </trkpt>
      <trkpt lat="47.27352" lon="4.97122">
        <ele>422.9</ele>
        <time>2013-01-18T10:43:26Z</time>
      </trkpt>
      <trkpt lat="47.27367" lon="4.97113">
        <ele>424</ele>
        <time>2013-01-18T10:43:37Z</time>
      </trkpt>
      <trkpt lat="47.27373" lon="4.971">
        <ele>425.2</ele>
        <time>2013-01-18T10:43:48Z</time>
      </trkpt>
      <trkpt lat="47.27385" lon="4.97092">
        <ele>426.3</ele>
        <time>2013-01-18T10:43:59Z</time>
      </trkpt>
      <trkpt lat="47.27398" lon="4.97098">
        <ele>425.8</ele>
        <time>2013-01-18T10:44:10Z</time>
      </trkpt>
      <trkpt lat="47.27415" lon="4.97105">
        <ele>425.2</ele>
        <time>2013-01-18T10:44:21Z</time>
      </trkpt>
      <trkpt lat="47.27433" lon="4.97108">
        <ele>424.6</ele>
        <time>2013-01-18T10:44:32Z</time>
      </trkpt>
      <trkpt lat="47.27447" lon="4.97115">
        <ele>423.7</ele>
        <time>2013-01-18T10:44:43Z</time>
      </trkpt>
      <trkpt lat="47.27463" lon="4.97125">
        <ele>423</ele>
        <time>2013-01-18T10:44:54Z</time>
      </trkpt>
      <trkpt lat="47.27475" lon="4.97135">
        <ele>422.2</ele>
        <time>2013-01-18T10:45:05Z</time>
      </trkpt>
      <trkpt lat="47.2749" lon="4.9714">
        <ele>421.3</ele>
        <time>2013-01-18T10:45:16Z</time>
      </trkpt>
      <trkpt lat="47.27508" lon="4.97148">
        <ele>420.2</ele>
        <time>2013-01-18T10:45:27Z</time>
      </trkpt>
      <trkpt lat="47.27525" lon="4.97155">
        <ele>419.3</ele>
        <time>2013-01-18T10:45:38Z</time>
      </trkpt>
      <trkpt lat="47.27537" lon="4.97162">
        <ele>418.2</ele>
        <time>2013-01-18T10:45:49Z</time>
      </trkpt>
      <trkpt lat="47.27553" lon="4.9717">
        <ele>416.8</ele>
        <time>2013-01-18T10:46:00Z</time>
      </trkpt>
      <trkpt lat="47.27567" lon="4.9718">
        <ele>418.617</ele>
        <time>2013-01-18T10:46:11Z</time>
      </trkpt>
      <trkpt lat="47.27582" lon="4.97187">
        <ele>413.3</ele>
        <time>2013-01-18T10:46:22Z</time>
      </trkpt>
      <trkpt lat="47.27597" lon="4.97193">
        <ele>412.2</ele>
        <time>2013-01-18T10:46:33Z</time>
      </trkpt>
      <trkpt lat="47.27607" lon="4.97203">
        <ele>410.8</ele>
        <time>2013-01-18T10:46:44Z</time>
      </trkpt>
      <trkpt lat="47.27605" lon="4.97225">
        <ele>408.1</ele>
        <time>2013-01-18T10:46:55Z</time>
      </trkpt>
      <trkpt lat="47.27595" lon="4.9724">
        <ele>407.1</ele>
        <time>2013-01-18T10:47:06Z</time>
      </trkpt>
      <trkpt lat="47.27592" lon="4.97252">
        <ele>405.6</ele>
        <time>2013-01-18T10:47:17Z</time>
      </trkpt>
      <trkpt lat="47.27587" lon="4.97268">
        <ele>402.2</ele>
        <time>2013-01-18T10:47:28Z</time>
      </trkpt>
      <trkpt lat="47.2758" lon="4.97293">
        <ele>398.7</ele>
        <time>2013-01-18T10:47:39Z</time>
      </trkpt>
      <trkpt lat="47.27578" lon="4.97318">
        <ele>395.5</ele>
        <time>2013-01-18T10:47:50Z</time>
      </trkpt>
      <trkpt lat="47.27573" lon="4.97347">
        <ele>390.7</ele>
        <time>2013-01-18T10:48:01Z</time>
      </trkpt>
      <trkpt lat="47.2757" lon="4.97372">
        <ele>386.5</ele>
        <time>2013-01-18T10:48:12Z</time>
      </trkpt>
      <trkpt lat="47.27568" lon="4.9739">
        <ele>384.1</ele>
        <time>2013-01-18T10:48:23Z</time>
      </trkpt>
      <trkpt lat="47.27562" lon="4.97417">
        <ele>379.8</ele>
        <time>2013-01-18T10:48:34Z</time>
      </trkpt>
      <trkpt lat="47.27557" lon="4.97433">
        <ele>377.1</ele>
        <time>2013-01-18T10:48:45Z</time>
      </trkpt>
      <trkpt lat="47.27557" lon="4.97457">
        <ele>375.9</ele>
        <time>2013-01-18T10:48:56Z</time>
      </trkpt>
      <trkpt lat="47.27552" lon="4.97482">
        <ele>375</ele>
        <time>2013-01-18T10:49:07Z</time>
      </trkpt>
      <trkpt lat="47.27548" lon="4.9749">
        <ele>374.4</ele>
        <time>2013-01-18T10:49:18Z</time>
      </trkpt>
      <trkpt lat="47.27542" lon="4.97503">
        <ele>372.1</ele>
        <time>2013-01-18T10:49:29Z</time>
      </trkpt>
      <trkpt lat="47.27535" lon="4.97522">
        <ele>367.8</ele>
        <time>2013-01-18T10:49:40Z</time>
      </trkpt>
      <trkpt lat="47.2753" lon="4.97542">
        <ele>364.3</ele>
        <time>2013-01-18T10:49:51Z</time>
      </trkpt>
      <trkpt lat="47.27522" lon="4.97567">
        <ele>363</ele>
        <time>2013-01-18T10:50:02Z</time>
      </trkpt>
      <trkpt lat="47.27515" lon="4.97587">
        <ele>360.5</ele>
        <time>2013-01-18T10:50:13Z</time>
      </trkpt>
      <trkpt lat="47.2751" lon="4.97598">
        <ele>358.3</ele>
        <time>2013-01-18T10:50:24Z</time>
      </trkpt>
      <trkpt lat="47.27508" lon="4.97623">
        <ele>355</ele>
        <time>2013-01-18T10:50:35Z</time>
      </trkpt>
      <trkpt lat="47.27503" lon="4.97645">
        <ele>350.9</ele>
        <time>2013-01-18T10:50:46Z</time>
      </trkpt>
      <trkpt lat="47.27497" lon="4.97682">
        <ele>347.6</ele>
        <time>2013-01-18T10:50:57Z</time>
      </trkpt>
      <trkpt lat="47.27495" lon="4.97702">
        <ele>346.4</ele>
        <time>2013-01-18T10:51:08Z</time>
      </trkpt>
      <trkpt lat="47.275" lon="4.97728">
        <ele>344.6</ele>
        <time>2013-01-18T10:51:19Z</time>
      </trkpt>
      <trkpt lat="47.275" lon="4.97753">
        <ele>342.8</ele>
        <time>2013-01-18T10:51:30Z</time>
      </trkpt>
      <trkpt lat="47.27495" lon="4.97778">
        <ele>340.3</ele>
        <time>2013-01-18T10:51:41Z</time>
      </trkpt>
      <trkpt lat="47.27495" lon="4.97798">
        <ele>339.3</ele>
        <time>2013-01-18T10:51:52Z</time>
      </trkpt>
      <trkpt lat="47.27497" lon="4.97817">
        <ele>338.1</ele>
        <time>2013-01-18T10:52:03Z</time>
      </trkpt>
      <trkpt lat="47.27503" lon="4.97837">
        <ele>337.1</ele>
        <time>2013-01-18T10:52:14Z</time>
      </trkpt>
      <trkpt lat="47.27517" lon="4.97858">
        <ele>336.7</ele>
        <time>2013-01-18T10:52:25Z</time>
      </trkpt>
      <trkpt lat="47.27532" lon="4.97877">
        <ele>336</ele>
        <time>2013-01-18T10:52:36Z</time>
      </trkpt>
      <trkpt lat="47.27542" lon="4.97888">
        <ele>335.1</ele>
        <time>2013-01-18T10:52:47Z</time>
      </trkpt>
      <trkpt lat="47.27555" lon="4.97902">
        <ele>334.6</ele>
        <time>2013-01-18T10:52:58Z</time>
      </trkpt>
      <trkpt lat="47.27573" lon="4.97915">
        <ele>334.5</ele>
        <time>2013-01-18T10:53:09Z</time>
      </trkpt>
      <trkpt lat="47.2758" lon="4.97937">
        <ele>331.9</ele>
        <time>2013-01-18T10:53:20Z</time>
      </trkpt>
      <trkpt lat="47.27578" lon="4.97958">
        <ele>328.6</ele>
        <time>2013-01-18T10:53:31Z</time>
      </trkpt>
      <trkpt lat="47.27577" lon="4.97977">
        <ele>325.9</ele>
        <time>2013-01-18T10:53:42Z</time>
      </trkpt>
      <trkpt lat="47.27562" lon="4.97972">
        <ele>325.5</ele>
        <time>2013-01-18T10:53:53Z</time>
      </trkpt>
      <trkpt lat="47.2755" lon="4.97963">
        <ele>325.9</ele>
        <time>2013-01-18T10:54:04Z</time>
      </trkpt>
      <trkpt lat="47.27538" lon="4.97953">
        <ele>326.5</ele>
        <time>2013-01-18T10:54:15Z</time>
      </trkpt>
      <trkpt lat="47.27525" lon="4.97943">
        <ele>326.9</ele>
        <time>2013-01-18T10:54:26Z</time>
      </trkpt>
      <trkpt lat="47.2751" lon="4.97932">
        <ele>326.6</ele>
        <time>2013-01-18T10:54:37Z</time>
      </trkpt>
      <trkpt lat="47.27495" lon="4.97925">
        <ele>325.6</ele>
        <time>2013-01-18T10:54:48Z</time>
      </trkpt>
      <trkpt lat="47.27485" lon="4.97943">
        <ele>322.5</ele>
        <time>2013-01-18T10:54:59Z</time>
      </trkpt>
      <trkpt lat="47.27483" lon="4.97968">
        <ele>320.7</ele>
        <time>2013-01-18T10:55:10Z</time>
      </trkpt>
      <trkpt lat="47.27485" lon="4.9799">
        <ele>319.2</ele>
        <time>2013-01-18T10:55:21Z</time>
      </trkpt>
      <trkpt lat="47.27485" lon="4.98013">
        <ele>317</ele>
        <time>2013-01-18T10:55:32Z</time>
      </trkpt>
      <trkpt lat="47.27485" lon="4.98038">
        <ele>314.3</ele>
        <time>2013-01-18T10:55:43Z</time>
      </trkpt>
      <trkpt lat="47.27473" lon="4.98035">
        <ele>314.3</ele>
        <time>2013-01-18T10:55:54Z</time>
      </trkpt>
      <trkpt lat="47.27457" lon="4.98037">
        <ele>313.7</ele>
        <time>2013-01-18T10:56:05Z</time>
      </trkpt>
      <trkpt lat="47.2744" lon="4.98042">
        <ele>312.8</ele>
        <time>2013-01-18T10:56:16Z</time>
      </trkpt>
      <trkpt lat="47.27433" lon="4.98025">
        <ele>313.8</ele>
        <time>2013-01-18T10:56:27Z</time>
      </trkpt>
      <trkpt lat="47.27437" lon="4.98005">
        <ele>315.6</ele>
        <time>2013-01-18T10:56:38Z</time>
      </trkpt>
      <trkpt lat="47.27437" lon="4.97987">
        <ele>317</ele>
        <time>2013-01-18T10:56:49Z</time>
      </trkpt>
      <trkpt lat="47.27425" lon="4.97975">
        <ele>317.8</ele>
        <time>2013-01-18T10:57:00Z</time>
      </trkpt>
      <trkpt lat="47.27423" lon="4.97958">
        <ele>319.5</ele>
        <time>2013-01-18T10:57:11Z</time>
      </trkpt>
      <trkpt lat="47.27423" lon="4.97935">
        <ele>321.7</ele>
        <time>2013-01-18T10:57:22Z</time>
      </trkpt>
      <trkpt lat="47.27417" lon="4.9792">
        <ele>322.8</ele>
        <time>2013-01-18T10:57:33Z</time>
      </trkpt>
      <trkpt lat="47.27407" lon="4.97907">
        <ele>324.3</ele>
        <time>2013-01-18T10:57:44Z</time>
      </trkpt>
      <trkpt lat="47.27393" lon="4.97895">
        <ele>325.5</ele>
        <time>2013-01-18T10:57:55Z</time>
      </trkpt>
      <trkpt lat="47.2738" lon="4.97888">
        <ele>325.8</ele>
        <time>2013-01-18T10:58:06Z</time>
      </trkpt>
      <trkpt lat="47.27367" lon="4.97885">
        <ele>325.9</ele>
        <time>2013-01-18T10:58:17Z</time>
      </trkpt>
      <trkpt lat="47.27352" lon="4.97878">
        <ele>326.8</ele>
        <time>2013-01-18T10:58:28Z</time>
      </trkpt>
      <trkpt lat="47.27337" lon="4.97873">
        <ele>327.3</ele>
        <time>2013-01-18T10:58:39Z</time>
      </trkpt>
      <trkpt lat="47.27325" lon="4.97872">
        <ele>327</ele>
        <time>2013-01-18T10:58:50Z</time>
      </trkpt>
      <trkpt lat="47.27308" lon="4.97865">
        <ele>326.8</ele>
        <time>2013-01-18T10:59:01Z</time>
      </trkpt>
      <trkpt lat="47.27293" lon="4.97862">
        <ele>326.9</ele>
        <time>2013-01-18T10:59:12Z</time>
      </trkpt>
      <trkpt lat="47.27283" lon="4.97862">
        <ele>326.9</ele>
        <time>2013-01-18T10:59:23Z</time>
      </trkpt>
      <trkpt lat="47.27283" lon="4.97858">
        <ele>327.4</ele>
        <time>2013-01-18T10:59:34Z</time>
      </trkpt>
      <trkpt lat="47.27283" lon="4.97853">
        <ele>328.2</ele>
        <time>2013-01-18T10:59:45Z</time>
      </trkpt>
      <trkpt lat="47.27283" lon="4.97843">
        <ele>329.7</ele>
        <time>2013-01-18T10:59:56Z</time>
      </trkpt>
      <trkpt lat="47.27282" lon="4.97835">
        <ele>330.9</ele>
        <time>2013-01-18T11:00:07Z</time>
      </trkpt>
      <trkpt lat="47.27272" lon="4.97828">
        <ele>331.3</ele>
        <time>2013-01-18T11:00:18Z</time>
      </trkpt>
      <trkpt lat="47.27258" lon="4.97822">
        <ele>331.3</ele>
        <time>2013-01-18T11:00:29Z</time>
      </trkpt>
      <trkpt lat="47.27253" lon="4.97817">
        <ele>331.6</ele>
        <time>2013-01-18T11:00:40Z</time>
      </trkpt>
      <trkpt lat="47.27242" lon="4.97808">
        <ele>332</ele>
        <time>2013-01-18T11:00:51Z</time>
      </trkpt>
      <trkpt lat="47.27228" lon="4.978">
        <ele>332.3</ele>
        <time>2013-01-18T11:01:02Z</time>
      </trkpt>
      <trkpt lat="47.27217" lon="4.97787">
        <ele>333.1</ele>
        <time>2013-01-18T11:01:13Z</time>
      </trkpt>
      <trkpt lat="47.27197" lon="4.9777">
        <ele>333.3</ele>
        <time>2013-01-18T11:01:24Z</time>
      </trkpt>
      <trkpt lat="47.27177" lon="4.97758">
        <ele>332.4</ele>
        <time>2013-01-18T11:01:35Z</time>
      </trkpt>
      <trkpt lat="47.2716" lon="4.97748">
        <ele>332.1</ele>
        <time>2013-01-18T11:01:46Z</time>
      </trkpt>
      <trkpt lat="47.27147" lon="4.97738">
        <ele>333.4</ele>
        <time>2013-01-18T11:01:57Z</time>
      </trkpt>
      <trkpt lat="47.27132" lon="4.97728">
        <ele>334.5</ele>
        <time>2013-01-18T11:02:08Z</time>
      </trkpt>
      <trkpt lat="47.27117" lon="4.97717">
        <ele>335</ele>
        <time>2013-01-18T11:02:19Z</time>
      </trkpt>
      <trkpt lat="47.27103" lon="4.97708">
        <ele>334.9</ele>
        <time>2013-01-18T11:02:30Z</time>
      </trkpt>
      <trkpt lat="47.27088" lon="4.97698">
        <ele>334.9</ele>
        <time>2013-01-18T11:02:41Z</time>
      </trkpt>
      <trkpt lat="47.27073" lon="4.97695">
        <ele>333.9</ele>
        <time>2013-01-18T11:02:52Z</time>
      </trkpt>
      <trkpt lat="47.27057" lon="4.97693">
        <ele>332.2</ele>
        <time>2013-01-18T11:03:03Z</time>
      </trkpt>
      <trkpt lat="47.27042" lon="4.97697">
        <ele>330.8</ele>
        <time>2013-01-18T11:03:14Z</time>
      </trkpt>
      <trkpt lat="47.27027" lon="4.97707">
        <ele>329</ele>
        <time>2013-01-18T11:03:25Z</time>
      </trkpt>
      <trkpt lat="47.27012" lon="4.97713">
        <ele>327.1</ele>
        <time>2013-01-18T11:03:36Z</time>
      </trkpt>
      <trkpt lat="47.26997" lon="4.97713">
        <ele>329.411</ele>
        <time>2013-01-18T11:03:47Z</time>
      </trkpt>
      <trkpt lat="47.26982" lon="4.97713">
        <ele>324</ele>
        <time>2013-01-18T11:03:58Z</time>
      </trkpt>
      <trkpt lat="47.26967" lon="4.97715">
        <ele>322.3</ele>
        <time>2013-01-18T11:04:09Z</time>
      </trkpt>
      <trkpt lat="47.26953" lon="4.97728">
        <ele>320.2</ele>
        <time>2013-01-18T11:04:20Z</time>
      </trkpt>
      <trkpt lat="47.26942" lon="4.97738">
        <ele>318.6</ele>
        <time>2013-01-18T11:04:31Z</time>
      </trkpt>
      <trkpt lat="47.26927" lon="4.97747">
        <ele>317</ele>
        <time>2013-01-18T11:04:42Z</time>
      </trkpt>
      <trkpt lat="47.26912" lon="4.97752">
        <ele>315.5</ele>
        <time>2013-01-18T11:04:53Z</time>
      </trkpt>
      <trkpt lat="47.26902" lon="4.97767">
        <ele>319.64</ele>
        <time>2013-01-18T11:05:04Z</time>
      </trkpt>
      <trkpt lat="47.26898" lon="4.97785">
        <ele>312.8</ele>
        <time>2013-01-18T11:05:15Z</time>
      </trkpt>
      <trkpt lat="47.269" lon="4.97805">
        <ele>311.4</ele>
        <time>2013-01-18T11:05:26Z</time>
      </trkpt>
      <trkpt lat="47.26902" lon="4.97827">
        <ele>310.3</ele>
        <time>2013-01-18T11:05:37Z</time>
      </trkpt>
      <trkpt lat="47.269" lon="4.97848">
        <ele>309</ele>
        <time>2013-01-18T11:05:48Z</time>
      </trkpt>
      <trkpt lat="47.269" lon="4.97873">
        <ele>307.5</ele>
        <time>2013-01-18T11:05:59Z</time>
      </trkpt>
      <trkpt lat="47.26902" lon="4.97898">
        <ele>305.8</ele>
        <time>2013-01-18T11:06:10Z</time>
      </trkpt>
      <trkpt lat="47.26902" lon="4.97922">
        <ele>304.3</ele>
        <time>2013-01-18T11:06:21Z</time>
      </trkpt>
      <trkpt lat="47.269" lon="4.97943">
        <ele>303.4</ele>
        <time>2013-01-18T11:06:32Z</time>
      </trkpt>
      <trkpt lat="47.26897" lon="4.97965">
        <ele>302.3</ele>
        <time>2013-01-18T11:06:43Z</time>
      </trkpt>
      <trkpt lat="47.26893" lon="4.97985">
        <ele>301.5</ele>
        <time>2013-01-18T11:06:54Z</time>
      </trkpt>
      <trkpt lat="47.2689" lon="4.98007">
        <ele>300.8</ele>
        <time>2013-01-18T11:07:05Z</time>
      </trkpt>
      <trkpt lat="47.26885" lon="4.98025">
        <ele>300</ele>
        <time>2013-01-18T11:07:16Z</time>
      </trkpt>
      <trkpt lat="47.26882" lon="4.98047">
        <ele>298.6</ele>
        <time>2013-01-18T11:07:27Z</time>
      </trkpt>
      <trkpt lat="47.26877" lon="4.9807">
        <ele>297.5</ele>
        <time>2013-01-18T11:07:38Z</time>
      </trkpt>
      <trkpt lat="47.26872" lon="4.98095">
        <ele>296.8</ele>
        <time>2013-01-18T11:07:49Z</time>
      </trkpt>
      <trkpt lat="47.26867" lon="4.98118">
        <ele>296.5</ele>
        <time>2013-01-18T11:08:00Z</time>
      </trkpt>
      <trkpt lat="47.2686" lon="4.98143">
        <ele>295.8</ele>
        <time>2013-01-18T11:08:11Z</time>
      </trkpt>
      <trkpt lat="47.26857" lon="4.98168">
        <ele>294.8</ele>
        <time>2013-01-18T11:08:22Z</time>
      </trkpt>
      <trkpt lat="47.26852" lon="4.98195">
        <ele>293.6</ele>
        <time>2013-01-18T11:08:33Z</time>
      </trkpt>
      <trkpt lat="47.26847" lon="4.98218">
        <ele>293.1</ele>
        <time>2013-01-18T11:08:44Z</time>
      </trkpt>
      <trkpt lat="47.26842" lon="4.98242">
        <ele>292.3</ele>
        <time>2013-01-18T11:08:55Z</time>
      </trkpt>
      <trkpt lat="47.26837" lon="4.98265">
        <ele>291.9</ele>
        <time>2013-01-18T11:09:06Z</time>
      </trkpt>
      <trkpt lat="47.26835" lon="4.98287">
        <ele>291.6</ele>
        <time>2013-01-18T11:09:17Z</time>
      </trkpt>
      <trkpt lat="47.26833" lon="4.98312">
        <ele>290.8</ele>
        <time>2013-01-18T11:09:28Z</time>
      </trkpt>
      <trkpt lat="47.2683" lon="4.98338">
        <ele>289.5</ele>
        <time>2013-01-18T11:09:39Z</time>
      </trkpt>
      <trkpt lat="47.26827" lon="4.98365">
        <ele>288</ele>
        <time>2013-01-18T11:09:50Z</time>
      </trkpt>
      <trkpt lat="47.26823" lon="4.9839">
        <ele>296.762</ele>
        <time>2013-01-18T11:10:01Z</time>
      </trkpt>
      <trkpt lat="47.26818" lon="4.98412">
        <ele>287.1</ele>
        <time>2013-01-18T11:10:12Z</time>
      </trkpt>
      <trkpt lat="47.26813" lon="4.98433">
        <ele>286.6</ele>
        <time>2013-01-18T11:10:23Z</time>
      </trkpt>
      <trkpt lat="47.2681" lon="4.98458">
        <ele>285.7</ele>
        <time>2013-01-18T11:10:34Z</time>
      </trkpt>
      <trkpt lat="47.26798" lon="4.98468">
        <ele>285.1</ele>
        <time>2013-01-18T11:10:45Z</time>
      </trkpt>
      <trkpt lat="47.26785" lon="4.98462">
        <ele>285.4</ele>
        <time>2013-01-18T11:10:56Z</time>
      </trkpt>
      <trkpt lat="47.26772" lon="4.98455">
        <ele>285.9</ele>
        <time>2013-01-18T11:11:07Z</time>
      </trkpt>
      <trkpt lat="47.26757" lon="4.98445">
        <ele>286.8</ele>
        <time>2013-01-18T11:11:18Z</time>
      </trkpt>
      <trkpt lat="47.26742" lon="4.98433">
        <ele>286.7</ele>
        <time>2013-01-18T11:11:29Z</time>
      </trkpt>
      <trkpt lat="47.26725" lon="4.98422">
        <ele>286.9</ele>
        <time>2013-01-18T11:11:40Z</time>
      </trkpt>
      <trkpt lat="47.26708" lon="4.98412">
        <ele>287</ele>
        <time>2013-01-18T11:11:51Z</time>
      </trkpt>
      <trkpt lat="47.26693" lon="4.98402">
        <ele>286.9</ele>
        <time>2013-01-18T11:12:02Z</time>
      </trkpt>
      <trkpt lat="47.2668" lon="4.98388">
        <ele>286.5</ele>
        <time>2013-01-18T11:12:13Z</time>
      </trkpt>
      <trkpt lat="47.26665" lon="4.98382">
        <ele>286</ele>
        <time>2013-01-18T11:12:24Z</time>
      </trkpt>
      <trkpt lat="47.26648" lon="4.98377">
        <ele>286</ele>
        <time>2013-01-18T11:12:35Z</time>
      </trkpt>
      <trkpt lat="47.2664" lon="4.98373">
        <ele>286</ele>
        <time>2013-01-18T11:12:46Z</time>
      </trkpt>
      <trkpt lat="47.2664" lon="4.98373">
        <ele>286</ele>
        <time>2013-01-18T11:12:57Z</time>
      </trkpt>
      <trkpt lat="47.2664" lon="4.98372">
        <ele>286</ele>
        <time>2013-01-18T11:13:08Z</time>
      </trkpt>
      <trkpt lat="47.2664" lon="4.98372">
        <ele>286</ele>
        <time>2013-01-18T11:13:19Z</time>
      </trkpt>
      <trkpt lat="47.2664" lon="4.98372">
        <ele>286</ele>
        <time>2013-01-18T11:13:30Z</time>
      </trkpt>
      <trkpt lat="47.2664" lon="4.98373">
        <ele>286</ele>
        <time>2013-01-18T11:13:41Z</time>
      </trkpt>
      <trkpt lat="47.2664" lon="4.98373">
        <ele>286</ele>
        <time>2013-01-18T11:13:52Z</time>
      </trkpt>
      <trkpt lat="47.26638" lon="4.98373">
        <ele>286</ele>
        <time>2013-01-18T11:14:03Z</time>
      </trkpt>
      <trkpt lat="47.26638" lon="4.98373">
        <ele>286</ele>
        <time>2013-01-18T11:14:14Z</time>
      </trkpt>
      <trkpt lat="47.26638" lon="4.98373">
        <ele>291.662</ele>
        <time>2013-01-18T11:14:25Z</time>
      </trkpt>
    </trkseg>
  </trk>
</gpx>